createdAt,value
2018-05-19T00:00:53.276Z,12.19
2018-05-19T00:02:49.239Z,12.22
2018-05-19T00:03:49.240Z,12.18
2018-05-19T00:05:46.187Z,12.20
2018-05-19T00:06:45.206Z,12.16
2018-05-19T00:08:43.647Z,12.13
2018-05-19T00:09:43.139Z,12.16
2018-05-19T00:11:39.594Z,12.20
2018-05-19T00:12:39.097Z,12.04
2018-05-19T00:14:38.042Z,12.11
2018-05-19T00:15:37.254Z,12.05
2018-05-19T00:17:35.683Z,12.08
2018-05-19T00:18:35.317Z,12.04
2018-05-19T00:20:31.797Z,12.03
2018-05-19T00:21:31.785Z,11.91
2018-05-19T00:23:29.236Z,12.00
2018-05-19T00:24:29.210Z,11.85
2018-05-19T00:26:27.202Z,11.91
2018-05-19T00:27:27.134Z,11.84
2018-05-19T00:29:23.588Z,11.79
2018-05-19T00:30:23.585Z,11.79
2018-05-19T00:32:22.536Z,11.81
2018-05-19T00:33:21.199Z,11.85
2018-05-19T00:35:19.642Z,11.85
2018-05-19T00:36:19.146Z,11.76
2018-05-19T00:38:16.586Z,11.82
2018-05-19T00:39:15.064Z,11.79
2018-05-19T00:41:12.966Z,11.76
2018-05-19T00:42:13.011Z,11.78
2018-05-19T00:44:11.958Z,11.78
2018-05-19T00:45:11.073Z,11.78
2018-05-19T00:47:10.530Z,11.75
2018-05-19T00:48:09.197Z,11.73
2018-05-19T00:50:08.633Z,11.73
2018-05-19T00:51:07.109Z,11.61
2018-05-19T00:53:05.246Z,11.67
2018-05-19T00:54:05.236Z,11.68
2018-05-19T00:56:01.204Z,11.68
2018-05-19T00:57:01.676Z,11.60
2018-05-19T00:58:59.302Z,11.64
2018-05-19T00:59:59.289Z,11.64
2018-05-19T01:01:57.392Z,11.52
2018-05-19T01:02:57.399Z,11.56
2018-05-19T01:04:55.876Z,11.53
2018-05-19T01:05:55.314Z,11.43
2018-05-19T01:07:54.272Z,11.46
2018-05-19T01:08:54.264Z,11.46
2018-05-19T01:10:51.297Z,11.39
2018-05-19T01:11:51.296Z,11.49
2018-05-19T01:13:49.760Z,11.46
2018-05-19T01:14:49.250Z,11.43
2018-05-19T01:16:48.696Z,11.48
2018-05-19T01:17:47.179Z,11.46
2018-05-19T01:19:45.137Z,11.43
2018-05-19T01:20:45.124Z,11.39
2018-05-19T01:22:41.089Z,11.33
2018-05-19T01:23:41.054Z,11.42
2018-05-19T01:25:39.183Z,11.28
2018-05-19T01:26:39.171Z,11.26
2018-05-19T01:28:37.641Z,11.21
2018-05-19T01:29:37.278Z,11.18
2018-05-19T01:31:34.232Z,11.26
2018-05-19T01:32:33.196Z,11.24
2018-05-19T01:34:29.672Z,11.21
2018-05-19T01:35:29.134Z,11.24
2018-05-19T01:37:26.009Z,11.24
2018-05-19T01:38:26.099Z,11.21
2018-05-19T01:40:21.032Z,11.18
2018-05-19T01:41:21.030Z,11.16
2018-05-19T01:43:17.471Z,11.15
2018-05-19T01:44:16.965Z,11.15
2018-05-19T01:46:14.417Z,11.05
2018-05-19T01:47:12.914Z,11.02
2018-05-19T01:49:11.351Z,11.06
2018-05-19T01:50:10.840Z,10.92
2018-05-19T01:52:06.769Z,11.00
2018-05-19T01:53:06.800Z,10.98
2018-05-19T01:55:04.776Z,10.90
2018-05-19T01:56:04.727Z,10.90
2018-05-19T01:58:03.683Z,10.95
2018-05-19T01:59:02.665Z,10.87
2018-05-19T02:01:00.572Z,10.91
2018-05-19T02:02:00.573Z,10.79
2018-05-19T02:03:59.508Z,10.80
2018-05-19T02:05:00.531Z,10.76
2018-05-19T02:06:55.146Z,10.75
2018-05-19T02:07:54.599Z,10.76
2018-05-19T02:09:52.534Z,10.76
2018-05-19T02:10:52.567Z,10.70
2018-05-19T02:12:48.482Z,10.72
2018-05-19T02:13:48.504Z,10.75
2018-05-19T02:15:46.407Z,10.76
2018-05-19T02:16:46.418Z,10.77
2018-05-19T02:18:43.354Z,10.79
2018-05-19T02:19:42.343Z,10.61
2018-05-19T02:21:40.822Z,10.65
2018-05-19T02:22:40.812Z,10.69
2018-05-19T02:24:39.210Z,10.65
2018-05-19T02:25:38.183Z,10.59
2018-05-19T02:27:36.156Z,10.59
2018-05-19T02:28:36.640Z,10.63
2018-05-19T02:30:32.612Z,10.66
2018-05-19T02:31:32.093Z,10.65
2018-05-19T02:33:28.525Z,10.66
2018-05-19T02:34:28.033Z,10.58
2018-05-19T02:36:24.997Z,10.51
2018-05-19T02:37:23.993Z,10.46
2018-05-19T02:39:21.954Z,10.42
2018-05-19T02:40:21.910Z,10.57
2018-05-19T02:42:19.880Z,10.57
2018-05-19T02:43:19.854Z,10.51
2018-05-19T02:45:15.764Z,10.58
2018-05-19T02:46:15.776Z,10.44
2018-05-19T02:48:11.755Z,10.46
2018-05-19T02:49:12.726Z,10.49
2018-05-19T02:51:07.718Z,10.44
2018-05-19T02:52:07.634Z,10.41
2018-05-19T02:54:03.583Z,10.44
2018-05-19T02:55:03.574Z,10.41
2018-05-19T02:57:02.546Z,10.46
2018-05-19T02:58:02.024Z,10.38
2018-05-19T02:59:59.608Z,10.33
2018-05-19T03:00:59.639Z,10.25
2018-05-19T03:02:57.574Z,10.15
2018-05-19T03:03:57.601Z,10.17
2018-05-19T03:05:55.553Z,10.28
2018-05-19T03:06:55.531Z,10.18
2018-05-19T03:08:55.403Z,10.23
2018-05-19T03:09:54.474Z,10.20
2018-05-19T03:11:52.154Z,10.25
2018-05-19T03:12:51.575Z,10.20
2018-05-19T03:14:50.498Z,10.20
2018-05-19T03:15:49.469Z,10.25
2018-05-19T03:17:47.399Z,10.17
2018-05-19T03:18:47.411Z,10.15
2018-05-19T03:20:43.356Z,10.20
2018-05-19T03:21:43.869Z,10.20
2018-05-19T03:23:39.775Z,10.20
2018-05-19T03:24:40.776Z,10.17
2018-05-19T03:26:37.382Z,10.18
2018-05-19T03:27:38.237Z,10.20
2018-05-19T03:29:33.395Z,10.26
2018-05-19T03:30:34.266Z,10.20
2018-05-19T03:32:32.278Z,10.26
2018-05-19T03:33:31.413Z,10.13
2018-05-19T03:35:27.378Z,10.07
2018-05-19T03:36:27.350Z,10.14
2018-05-19T03:38:25.809Z,10.03
2018-05-19T03:39:26.234Z,10.11
2018-05-19T03:41:23.763Z,10.10
2018-05-19T03:42:23.381Z,10.05
2018-05-19T03:44:21.805Z,10.05
2018-05-19T03:45:21.318Z,10.11
2018-05-19T03:47:19.266Z,10.08
2018-05-19T03:48:19.227Z,10.10
2018-05-19T03:50:18.194Z,10.05
2018-05-19T03:51:17.170Z,9.99
2018-05-19T03:53:15.126Z,10.02
2018-05-19T03:54:16.054Z,9.98
2018-05-19T03:56:14.061Z,9.92
2018-05-19T03:57:14.092Z,9.90
2018-05-19T03:59:11.376Z,9.98
2018-05-19T04:00:12.079Z,9.89
2018-05-19T04:02:07.783Z,9.88
2018-05-19T04:03:07.949Z,9.90
2018-05-19T04:05:05.199Z,9.85
2018-05-19T04:06:05.213Z,9.85
2018-05-19T04:08:01.155Z,9.84
2018-05-19T04:09:00.661Z,9.88
2018-05-19T04:10:56.127Z,9.88
2018-05-19T04:11:56.055Z,9.88
2018-05-19T04:13:52.013Z,9.90
2018-05-19T04:14:51.994Z,9.92
2018-05-19T04:16:47.969Z,9.90
2018-05-19T04:17:47.939Z,9.93
2018-05-19T04:19:43.914Z,10.00
2018-05-19T04:20:43.859Z,10.03
2018-05-19T04:22:42.795Z,10.00
2018-05-19T04:23:43.320Z,10.00
2018-05-19T04:25:39.724Z,10.14
2018-05-19T04:26:39.725Z,10.11
2018-05-19T04:28:35.674Z,10.13
2018-05-19T04:29:35.664Z,10.08
2018-05-19T04:31:31.606Z,10.21
2018-05-19T04:32:31.569Z,10.18
2018-05-19T04:34:27.480Z,10.21
2018-05-19T04:35:27.484Z,10.15
2018-05-19T04:37:26.947Z,10.25
2018-05-19T04:38:25.404Z,10.29
2018-05-19T04:40:21.377Z,10.39
2018-05-19T04:41:21.856Z,10.36
2018-05-19T04:43:17.312Z,10.46
2018-05-19T04:44:17.808Z,10.47
2018-05-19T04:46:13.258Z,10.55
2018-05-19T04:47:13.207Z,10.51
2018-05-19T04:49:09.195Z,10.55
2018-05-19T04:50:09.709Z,10.52
2018-05-19T04:52:08.602Z,10.61
2018-05-19T04:53:07.272Z,10.63
2018-05-19T04:55:05.726Z,10.63
2018-05-19T04:56:05.227Z,10.65
2018-05-19T04:58:03.213Z,10.79
2018-05-19T04:59:03.196Z,10.69
2018-05-19T05:01:01.633Z,10.72
2018-05-19T05:02:01.102Z,10.73
2018-05-19T05:03:59.239Z,10.76
2018-05-19T05:05:00.064Z,10.77
2018-05-19T05:06:58.689Z,10.95
2018-05-19T05:07:57.476Z,10.91
2018-05-19T05:09:53.442Z,11.02
2018-05-19T05:10:53.401Z,10.98
2018-05-19T05:12:49.889Z,10.97
2018-05-19T05:13:49.886Z,11.03
2018-05-19T05:15:47.820Z,11.12
2018-05-19T05:16:47.451Z,11.24
2018-05-19T05:18:43.409Z,11.20
2018-05-19T05:19:43.399Z,11.18
2018-05-19T05:21:39.313Z,11.26
2018-05-19T05:22:39.280Z,11.27
2018-05-19T05:24:38.248Z,11.27
2018-05-19T05:25:37.412Z,11.23
2018-05-19T05:27:33.838Z,11.23
2018-05-19T05:28:33.342Z,11.18
2018-05-19T05:30:29.286Z,11.41
2018-05-19T05:31:29.819Z,11.38
2018-05-19T05:33:25.265Z,11.43
2018-05-19T05:34:25.226Z,11.49
2018-05-19T05:36:21.215Z,11.46
2018-05-19T05:37:21.696Z,11.51
2018-05-19T05:39:22.638Z,11.51
2018-05-19T05:40:21.606Z,11.52
2018-05-19T05:42:20.082Z,11.60
2018-05-19T05:43:19.882Z,11.61
2018-05-19T05:45:15.818Z,11.66
2018-05-19T05:46:15.794Z,11.78
2018-05-19T05:48:11.760Z,11.82
2018-05-19T05:49:11.741Z,11.79
2018-05-19T05:51:07.719Z,11.84
2018-05-19T05:54:07.620Z,12.01
2018-05-19T05:55:05.794Z,12.16
2018-05-19T05:57:02.728Z,12.18
2018-05-19T05:58:02.239Z,12.16
2018-05-19T05:59:59.169Z,12.13
2018-05-19T06:00:58.174Z,12.19
2018-05-19T06:02:54.100Z,12.23
2018-05-19T06:03:54.119Z,12.25
2018-05-19T06:05:52.533Z,12.51
2018-05-19T06:06:51.765Z,12.53
2018-05-19T06:08:50.222Z,12.36
2018-05-19T06:09:49.707Z,12.51
2018-05-19T06:11:45.639Z,12.52
2018-05-19T06:12:45.651Z,12.53
2018-05-19T06:14:41.619Z,12.74
2018-05-19T06:15:41.589Z,12.84
2018-05-19T06:17:39.549Z,12.92
2018-05-19T06:18:39.611Z,12.89
2018-05-19T06:20:35.506Z,12.74
2018-05-19T06:21:35.491Z,12.53
2018-05-19T06:23:32.982Z,12.52
2018-05-19T06:24:31.424Z,12.52
2018-05-19T06:26:29.562Z,12.53
2018-05-19T06:27:30.395Z,12.58
2018-05-19T06:29:27.510Z,12.65
2018-05-19T06:30:27.476Z,12.80
2018-05-19T06:32:26.430Z,12.78
2018-05-19T06:33:25.936Z,12.89
2018-05-19T06:35:21.870Z,13.10
2018-05-19T06:36:21.358Z,13.27
2018-05-19T06:38:18.339Z,13.39
2018-05-19T06:39:17.300Z,13.53
2018-05-19T06:41:18.765Z,13.63
2018-05-19T06:42:17.714Z,13.55
2018-05-19T06:44:16.597Z,13.54
2018-05-19T06:45:15.658Z,13.60
2018-05-19T06:47:15.049Z,13.44
2018-05-19T06:48:13.891Z,13.50
2018-05-19T06:50:11.934Z,13.48
2018-05-19T06:51:11.915Z,13.45
2018-05-19T06:53:08.878Z,13.58
2018-05-19T06:54:09.306Z,13.57
2018-05-19T06:56:04.875Z,13.58
2018-05-19T06:57:03.887Z,13.51
2018-05-19T06:59:02.279Z,13.55
2018-05-19T07:00:02.786Z,13.53
2018-05-19T07:02:00.065Z,13.55
2018-05-19T07:03:00.906Z,13.58
2018-05-19T07:04:58.506Z,13.51
2018-05-19T07:05:58.499Z,13.66
2018-05-19T07:07:53.999Z,13.55
2018-05-19T07:08:53.953Z,13.53
2018-05-19T07:10:52.416Z,13.58
2018-05-19T07:11:51.854Z,13.70
2018-05-19T07:13:49.795Z,13.65
2018-05-19T07:14:50.310Z,13.60
2018-05-19T07:16:46.270Z,13.68
2018-05-19T07:17:45.778Z,13.70
2018-05-19T07:19:44.713Z,13.76
2018-05-19T07:20:43.862Z,13.72
2018-05-19T07:22:41.825Z,13.90
2018-05-19T07:23:41.802Z,14.03
2018-05-19T07:25:42.265Z,13.93
2018-05-19T07:26:42.269Z,13.86
2018-05-19T07:28:38.242Z,13.99
2018-05-19T07:29:38.226Z,14.16
2018-05-19T07:31:36.673Z,14.36
2018-05-19T07:32:36.136Z,14.34
2018-05-19T07:34:35.642Z,14.49
2018-05-19T07:35:34.298Z,14.45
2018-05-19T07:37:33.706Z,14.70
2018-05-19T07:38:32.364Z,14.61
2018-05-19T07:40:31.336Z,14.46
2018-05-19T07:41:31.846Z,14.70
2018-05-19T07:43:28.460Z,14.80
2018-05-19T07:44:28.474Z,14.94
2018-05-19T07:46:24.430Z,14.85
2018-05-19T07:47:24.421Z,14.95
2018-05-19T07:49:24.399Z,15.10
2018-05-19T07:50:22.366Z,15.02
2018-05-19T07:52:20.824Z,15.20
2018-05-19T07:53:20.835Z,15.12
2018-05-19T07:55:18.304Z,15.20
2018-05-19T07:56:19.269Z,15.01
2018-05-19T07:58:16.325Z,14.82
2018-05-19T07:59:16.255Z,14.86
2018-05-19T08:01:12.706Z,15.04
2018-05-19T08:02:12.159Z,14.94
2018-05-19T08:04:09.153Z,15.07
2018-05-19T08:05:08.117Z,15.16
2018-05-19T08:07:04.126Z,15.34
2018-05-19T08:08:04.048Z,15.31
2018-05-19T08:10:00.024Z,15.26
2018-05-19T08:10:59.985Z,15.04
2018-05-19T08:12:58.464Z,15.27
2018-05-19T08:13:57.936Z,15.35
2018-05-19T08:15:56.901Z,15.22
2018-05-19T08:16:56.831Z,15.12
2018-05-19T08:18:53.991Z,15.13
2018-05-19T08:19:54.004Z,15.05
2018-05-19T08:21:51.440Z,15.16
2018-05-19T08:22:49.945Z,15.33
2018-05-19T08:24:46.483Z,15.41
2018-05-19T08:25:45.913Z,15.40
2018-05-19T08:27:41.835Z,15.30
2018-05-19T08:28:41.876Z,15.33
2018-05-19T08:30:40.744Z,15.52
2018-05-19T08:31:39.814Z,15.60
2018-05-19T08:33:39.282Z,15.89
2018-05-19T08:34:37.972Z,15.88
2018-05-19T08:36:34.934Z,16.08
2018-05-19T08:37:34.745Z,16.16
2018-05-19T08:39:34.700Z,16.02
2018-05-19T08:40:34.729Z,16.02
2018-05-19T08:42:30.363Z,16.06
2018-05-19T08:43:29.859Z,15.98
2018-05-19T08:45:26.326Z,16.16
2018-05-19T08:46:25.795Z,16.00
2018-05-19T08:48:31.558Z,15.99
2018-05-19T08:49:31.649Z,15.99
2018-05-19T08:51:24.941Z,15.95
2018-05-19T08:52:24.417Z,15.78
2018-05-19T08:54:22.875Z,15.70
2018-05-19T08:55:22.872Z,15.78
2018-05-19T08:57:18.810Z,15.71
2018-05-19T08:58:18.870Z,15.81
2018-05-19T09:00:17.840Z,15.84
2018-05-19T09:01:17.200Z,15.89
2018-05-19T09:03:12.761Z,15.93
2018-05-19T09:04:13.770Z,16.14
2018-05-19T09:06:11.741Z,16.26
2018-05-19T09:07:11.236Z,16.21
2018-05-19T09:09:08.841Z,16.18
2018-05-19T09:10:08.503Z,16.34
2018-05-19T09:12:05.469Z,16.33
2018-05-19T09:13:05.442Z,16.39
2018-05-19T09:15:03.379Z,16.42
2018-05-19T09:16:03.413Z,16.49
2018-05-19T09:18:01.841Z,16.57
2018-05-19T09:19:01.322Z,16.44
2018-05-19T09:20:59.443Z,16.39
2018-05-19T09:21:59.421Z,16.29
2018-05-19T09:23:55.900Z,16.27
2018-05-19T09:24:55.889Z,16.27
2018-05-19T09:26:54.835Z,16.21
2018-05-19T09:27:53.338Z,16.11
2018-05-19T09:29:49.380Z,16.22
2018-05-19T09:30:49.811Z,16.32
2018-05-19T09:32:45.233Z,16.32
2018-05-19T09:35:41.734Z,16.21
2018-05-19T09:36:41.171Z,16.16
2018-05-19T09:38:37.155Z,16.29
2018-05-19T09:39:37.631Z,16.34
2018-05-19T09:41:35.043Z,16.47
2018-05-19T09:42:36.514Z,16.44
2018-05-19T09:44:33.024Z,16.44
2018-05-19T09:45:34.516Z,16.42
2018-05-19T09:47:29.500Z,16.62
2018-05-19T09:48:29.484Z,16.70
2018-05-19T09:50:27.066Z,16.90
2018-05-19T09:51:27.097Z,16.91
2018-05-19T09:53:23.961Z,17.03
2018-05-19T09:54:23.044Z,16.99
2018-05-19T09:56:21.007Z,17.00
2018-05-19T09:57:21.024Z,17.03
2018-05-19T09:59:19.049Z,17.17
2018-05-19T10:00:19.037Z,17.09
2018-05-19T10:02:17.896Z,16.92
2018-05-19T10:03:17.087Z,16.90
2018-05-19T10:05:16.594Z,16.65
2018-05-19T10:06:15.519Z,16.58
2018-05-19T10:08:13.454Z,16.74
2018-05-19T10:09:12.983Z,16.81
2018-05-19T10:11:11.064Z,16.92
2018-05-19T10:12:11.922Z,16.91
2018-05-19T10:14:08.993Z,16.87
2018-05-19T10:15:09.513Z,16.91
2018-05-19T10:17:07.519Z,16.94
2018-05-19T10:18:06.932Z,16.90
2018-05-19T10:20:04.393Z,16.94
2018-05-19T10:21:03.386Z,16.84
2018-05-19T10:23:01.123Z,16.51
2018-05-19T10:24:01.014Z,16.57
2018-05-19T10:26:00.529Z,16.73
2018-05-19T10:27:01.076Z,16.77
2018-05-19T10:28:55.635Z,16.81
2018-05-19T10:29:56.138Z,16.76
2018-05-19T10:31:53.099Z,16.81
2018-05-19T10:32:52.090Z,16.73
2018-05-19T10:34:49.632Z,17.18
2018-05-19T10:35:50.114Z,17.22
2018-05-19T10:37:45.256Z,17.46
2018-05-19T10:38:45.227Z,17.49
2018-05-19T10:40:41.209Z,17.71
2018-05-19T10:41:41.698Z,17.69
2018-05-19T10:43:37.154Z,17.71
2018-05-19T10:44:37.089Z,17.60
2018-05-19T10:46:42.087Z,17.46
2018-05-19T10:47:40.719Z,17.52
2018-05-19T10:49:36.647Z,17.58
2018-05-19T10:50:37.188Z,17.66
2018-05-19T10:52:33.753Z,17.47
2018-05-19T10:53:33.119Z,17.46
2018-05-19T10:55:30.084Z,17.55
2018-05-19T10:56:29.540Z,17.54
2018-05-19T10:58:28.505Z,17.45
2018-05-19T10:59:27.496Z,17.43
2018-05-19T11:01:23.023Z,17.52
2018-05-19T11:02:21.980Z,17.74
2018-05-19T11:04:19.422Z,17.77
2018-05-19T11:05:17.912Z,17.80
2018-05-19T11:07:15.877Z,17.69
2018-05-19T11:08:15.867Z,17.66
2018-05-19T11:10:12.321Z,17.49
2018-05-19T11:11:12.823Z,17.60
2018-05-19T11:13:07.827Z,17.57
2018-05-19T11:14:07.789Z,17.66
2018-05-19T11:16:04.250Z,17.86
2018-05-19T11:17:03.957Z,18.05
2018-05-19T11:18:59.926Z,18.36
2018-05-19T11:19:59.914Z,18.16
2018-05-19T11:21:55.917Z,18.27
2018-05-19T11:22:56.470Z,18.49
2018-05-19T11:24:51.825Z,18.59
2018-05-19T11:25:52.334Z,18.82
2018-05-19T11:27:50.714Z,18.86
2018-05-19T11:28:49.843Z,18.74
2018-05-19T11:30:45.739Z,18.84
2018-05-19T11:31:45.751Z,18.87
2018-05-19T11:33:40.209Z,18.99
2018-05-19T11:34:39.698Z,19.05
2018-05-19T11:36:35.165Z,18.78
2018-05-19T11:37:35.146Z,18.79
2018-05-19T11:39:32.110Z,18.51
2018-05-19T11:41:47.058Z,18.65
2018-05-19T11:42:47.087Z,18.66
2018-05-19T11:44:43.531Z,18.72
2018-05-19T11:45:43.538Z,18.49
2018-05-19T11:47:38.970Z,18.51
2018-05-19T11:48:39.128Z,18.57
2018-05-19T11:50:34.993Z,18.68
2018-05-19T11:51:35.945Z,18.59
2018-05-19T11:53:31.930Z,18.41
2018-05-19T11:54:31.420Z,18.45
2018-05-19T11:56:30.863Z,18.26
2018-05-19T11:57:30.378Z,18.27
2018-05-19T11:59:26.745Z,18.14
2018-05-19T12:00:25.834Z,18.13
2018-05-19T12:02:21.791Z,18.23
2018-05-19T12:03:21.793Z,18.32
2018-05-19T12:05:21.182Z,18.50
2018-05-19T12:06:19.749Z,18.74
2018-05-19T12:08:20.400Z,18.78
2018-05-19T12:09:20.538Z,18.75
2018-05-19T12:11:21.418Z,18.87
2018-05-19T12:12:20.937Z,18.63
2018-05-19T12:14:21.347Z,18.82
2018-05-19T12:15:22.245Z,18.96
2018-05-19T12:17:19.408Z,19.17
2018-05-19T12:18:19.421Z,19.25
2018-05-19T12:20:17.373Z,19.09
2018-05-19T12:21:17.891Z,19.16
2018-05-19T12:23:14.356Z,18.93
2018-05-19T12:24:13.833Z,19.06
2018-05-19T12:26:11.272Z,18.86
2018-05-19T12:27:11.824Z,18.71
2018-05-19T12:29:11.730Z,18.61
2018-05-19T12:30:11.743Z,18.50
2018-05-19T12:32:12.746Z,18.38
2018-05-19T12:33:12.226Z,18.38
2018-05-19T12:35:10.162Z,18.14
2018-05-19T12:36:10.165Z,18.10
2018-05-19T12:38:08.336Z,18.31
2018-05-19T12:39:08.330Z,18.29
2018-05-19T12:41:06.244Z,18.19
2018-05-19T12:42:06.240Z,18.14
2018-05-19T12:44:02.228Z,18.11
2018-05-19T12:45:02.709Z,18.03
2018-05-19T12:47:03.672Z,17.87
2018-05-19T12:48:03.652Z,17.90
2018-05-19T12:50:01.667Z,18.02
2018-05-19T12:51:01.697Z,18.02
2018-05-19T12:52:59.298Z,17.84
2018-05-19T12:53:58.769Z,17.92
2018-05-19T12:55:54.714Z,17.87
2018-05-19T12:56:54.733Z,17.76
2018-05-19T12:58:51.389Z,17.50
2018-05-19T12:59:50.709Z,17.31
2018-05-19T13:01:46.718Z,17.47
2018-05-19T13:02:46.640Z,17.43
2018-05-19T13:04:45.168Z,17.55
2018-05-19T13:05:45.525Z,17.76
2018-05-19T13:07:41.733Z,17.81
2018-05-19T13:08:40.748Z,17.96
2018-05-19T13:10:40.098Z,18.19
2018-05-19T13:11:38.604Z,18.13
2018-05-19T13:13:35.554Z,18.36
2018-05-19T13:14:34.603Z,18.38
2018-05-19T13:16:33.173Z,18.39
2018-05-19T13:17:42.663Z,18.53
2018-05-19T13:19:28.532Z,18.75
2018-05-19T13:20:30.012Z,18.86
2018-05-19T13:22:24.405Z,18.93
2018-05-19T13:23:25.919Z,18.94
2018-05-19T13:25:20.430Z,18.82
2018-05-19T13:26:21.387Z,18.99
2018-05-19T13:28:17.414Z,18.66
2018-05-19T13:29:17.416Z,18.42
2018-05-19T13:31:13.403Z,18.39
2018-05-19T13:32:13.377Z,18.44
2018-05-19T13:34:09.837Z,18.44
2018-05-19T13:35:09.861Z,18.50
2018-05-19T13:37:05.285Z,18.38
2018-05-19T13:38:05.775Z,18.44
2018-05-19T13:40:02.720Z,18.41
2018-05-19T13:41:02.145Z,18.36
2018-05-19T13:42:59.357Z,18.39
2018-05-19T13:43:59.359Z,18.47
2018-05-19T13:45:58.317Z,18.47
2018-05-19T13:46:58.370Z,18.41
2018-05-19T13:48:57.398Z,18.45
2018-05-19T13:49:56.471Z,18.44
2018-05-19T13:51:51.618Z,18.47
2018-05-19T13:52:52.104Z,18.45
2018-05-19T13:54:51.045Z,18.66
2018-05-19T13:55:49.749Z,18.65
2018-05-19T13:57:48.721Z,18.78
2018-05-19T13:58:48.684Z,18.84
2018-05-19T14:00:44.677Z,18.96
2018-05-19T14:01:43.607Z,19.00
2018-05-19T14:03:40.079Z,19.16
2018-05-19T14:04:40.073Z,19.17
2018-05-19T14:06:36.555Z,19.12
2018-05-19T14:07:35.574Z,18.97
2018-05-19T14:09:34.004Z,18.74
2018-05-19T14:10:34.007Z,18.71
2018-05-19T14:12:32.030Z,18.72
2018-05-19T14:13:31.608Z,18.74
2018-05-19T14:15:39.204Z,18.97
2018-05-19T14:16:40.103Z,18.87
2018-05-19T14:18:35.303Z,18.87
2018-05-19T14:19:36.100Z,18.84
2018-05-19T14:21:29.953Z,18.66
2018-05-19T14:22:29.858Z,18.47
2018-05-19T14:24:30.370Z,18.50
2018-05-19T14:25:31.819Z,18.60
2018-05-19T14:27:32.271Z,18.66
2018-05-19T14:28:31.615Z,18.68
2018-05-19T14:30:28.551Z,18.82
2018-05-19T14:31:28.547Z,18.96
2018-05-19T14:33:26.511Z,18.91
2018-05-19T14:34:26.496Z,18.96
2018-05-19T14:36:24.458Z,19.09
2018-05-19T14:37:24.467Z,19.10
2018-05-19T14:39:22.240Z,19.16
2018-05-19T14:40:20.470Z,19.09
2018-05-19T14:42:16.378Z,19.10
2018-05-19T14:43:16.411Z,19.02
2018-05-19T14:45:12.379Z,18.87
2018-05-19T14:46:12.349Z,18.93
2018-05-19T14:48:09.808Z,19.09
2018-05-19T14:49:08.281Z,19.09
2018-05-19T14:51:05.223Z,19.12
2018-05-19T14:52:05.759Z,18.96
2018-05-19T14:54:01.216Z,19.12
2018-05-19T14:55:01.280Z,19.12
2018-05-19T14:56:57.633Z,18.84
2018-05-19T14:57:58.168Z,18.86
2018-05-19T14:59:55.615Z,18.81
2018-05-19T15:00:56.144Z,18.93
2018-05-19T15:02:53.394Z,19.13
2018-05-19T15:05:10.324Z,19.12
2018-05-19T15:06:11.025Z,19.16
2018-05-19T15:08:08.288Z,19.23
2018-05-19T15:09:08.306Z,19.16
2018-05-19T15:11:05.409Z,19.10
2018-05-19T15:12:05.935Z,19.00
2018-05-19T15:14:03.384Z,18.89
2018-05-19T15:15:03.388Z,18.78
2018-05-19T15:17:14.020Z,18.91
2018-05-19T15:18:14.005Z,18.86
2018-05-19T15:20:13.898Z,18.86
2018-05-19T15:21:12.235Z,18.84
2018-05-19T15:23:10.241Z,18.87
2018-05-19T15:24:10.195Z,18.96
2018-05-19T15:26:08.680Z,18.87
2018-05-19T15:27:08.193Z,18.79
2018-05-19T15:29:04.177Z,18.79
2018-05-19T15:30:03.900Z,18.81
2018-05-19T15:32:00.298Z,18.86
2018-05-19T15:33:00.886Z,18.84
2018-05-19T15:34:57.950Z,18.89
2018-05-19T15:35:57.944Z,18.91
2018-05-19T15:37:54.406Z,18.96
2018-05-19T15:38:54.278Z,19.13
2018-05-19T15:40:50.361Z,19.07
2018-05-19T15:41:50.796Z,19.02
2018-05-19T15:43:45.807Z,19.10
2018-05-19T15:44:46.309Z,18.99
2018-05-19T15:47:57.409Z,18.91
2018-05-19T15:48:30.864Z,19.10
2018-05-19T15:50:32.374Z,19.12
2018-05-19T15:52:49.929Z,19.32
2018-05-19T15:53:48.248Z,19.30
2018-05-19T15:55:52.167Z,19.31
2018-05-19T15:56:52.208Z,19.25
2018-05-19T15:58:49.531Z,19.12
2018-05-19T15:59:48.238Z,19.12
2018-05-19T16:01:47.527Z,19.10
2018-05-19T16:02:46.136Z,19.06
2018-05-19T16:04:42.102Z,18.84
2018-05-19T16:05:42.101Z,18.86
2018-05-19T16:07:41.588Z,18.78
2018-05-19T16:08:40.160Z,18.86
2018-05-19T16:10:41.035Z,19.15
2018-05-19T16:11:40.525Z,19.13
2018-05-19T16:13:36.470Z,19.02
2018-05-19T16:14:36.983Z,19.09
2018-05-19T16:16:33.459Z,19.16
2018-05-19T16:17:32.476Z,19.12
2018-05-19T16:19:31.929Z,18.76
2018-05-19T16:20:32.396Z,18.78
2018-05-19T16:22:32.300Z,18.76
2018-05-19T16:23:32.521Z,18.84
2018-05-19T16:25:32.019Z,18.93
2018-05-19T16:26:31.631Z,18.97
2018-05-19T16:28:31.977Z,19.07
2018-05-19T16:29:31.918Z,19.06
2018-05-19T16:31:29.378Z,19.12
2018-05-19T16:32:27.869Z,19.02
2018-05-19T16:34:25.856Z,18.96
2018-05-19T16:35:25.832Z,18.86
2018-05-19T16:37:23.755Z,19.00
2018-05-19T16:38:23.762Z,19.05
2018-05-19T16:40:19.740Z,18.96
2018-05-19T16:41:19.866Z,19.00
2018-05-19T16:43:19.191Z,19.23
2018-05-19T16:44:17.358Z,19.31
2018-05-19T16:46:17.972Z,19.35
2018-05-19T16:47:18.067Z,19.30
2018-05-19T16:49:14.278Z,19.50
2018-05-19T16:50:13.785Z,19.55
2018-05-19T16:52:12.221Z,19.68
2018-05-19T16:53:12.261Z,19.72
2018-05-19T16:55:08.178Z,19.74
2018-05-19T16:58:13.172Z,19.38
2018-05-19T16:59:09.749Z,19.53
2018-05-19T17:01:10.193Z,19.80
2018-05-19T17:02:10.150Z,19.83
2018-05-19T17:04:06.128Z,19.64
2018-05-19T17:05:06.164Z,19.61
2018-05-19T17:07:02.065Z,19.52
2018-05-19T17:08:02.062Z,19.34
2018-05-19T17:09:57.030Z,19.19
2018-05-19T17:10:56.512Z,19.23
2018-05-19T17:12:52.484Z,19.10
2018-05-19T17:13:53.407Z,19.12
2018-05-19T17:15:48.419Z,19.06
2018-05-19T17:16:48.445Z,19.07
2018-05-19T17:18:45.421Z,18.99
2018-05-19T17:19:44.394Z,18.84
2018-05-19T17:21:40.897Z,18.94
2018-05-19T17:22:40.359Z,18.87
2018-05-19T17:24:36.548Z,18.86
2018-05-19T17:25:36.533Z,18.90
2018-05-19T17:27:38.560Z,18.91
2018-05-19T17:28:29.982Z,18.87
2018-05-19T17:30:25.956Z,18.82
2018-05-19T17:31:25.965Z,18.78
2018-05-19T17:33:21.950Z,18.65
2018-05-19T17:34:21.988Z,18.66
2018-05-19T17:36:18.378Z,18.66
2018-05-19T17:37:17.896Z,18.69
2018-05-19T17:39:14.401Z,18.76
2018-05-19T17:40:13.851Z,18.76
2018-05-19T17:42:10.306Z,18.68
2018-05-19T17:43:09.781Z,18.63
2018-05-19T17:45:07.782Z,18.59
2018-05-19T17:46:07.823Z,18.61
2018-05-19T17:48:04.714Z,18.66
2018-05-19T17:49:03.710Z,18.59
2018-05-19T17:50:59.711Z,18.61
2018-05-19T17:51:59.652Z,18.75
2018-05-19T17:53:55.589Z,18.63
2018-05-19T17:54:55.610Z,18.63
2018-05-19T17:56:54.051Z,18.60
2018-05-19T17:57:53.527Z,18.65
2018-05-19T17:59:50.486Z,18.45
2018-05-19T18:00:50.487Z,18.50
2018-05-19T18:02:44.952Z,18.44
2018-05-19T18:03:43.955Z,18.41
2018-05-19T18:05:39.954Z,18.50
2018-05-19T18:06:39.933Z,18.44
2018-05-19T18:08:36.424Z,18.24
2018-05-19T18:09:35.983Z,18.32
2018-05-19T18:11:31.939Z,18.20
2018-05-19T18:12:31.908Z,18.17
2018-05-19T18:14:31.400Z,18.03
2018-05-19T18:15:30.053Z,18.16
2018-05-19T18:17:30.513Z,18.16
2018-05-19T18:18:30.518Z,18.16
2018-05-19T18:20:27.001Z,18.03
2018-05-19T18:21:26.446Z,18.03
2018-05-19T18:23:23.406Z,18.03
2018-05-19T18:24:22.668Z,17.95
2018-05-19T18:26:17.198Z,17.95
2018-05-19T18:27:17.193Z,17.95
2018-05-19T18:29:13.199Z,17.92
2018-05-19T18:30:13.145Z,17.88
2018-05-19T18:32:09.141Z,17.81
2018-05-19T18:33:09.123Z,17.87
2018-05-19T18:35:07.103Z,17.80
2018-05-19T18:36:08.086Z,17.69
2018-05-19T18:38:05.041Z,17.63
2018-05-19T18:39:05.033Z,17.63
2018-05-19T18:41:03.020Z,17.69
2018-05-19T18:42:03.509Z,17.63
2018-05-19T18:44:03.893Z,17.55
2018-05-19T18:44:59.779Z,17.63
2018-05-19T18:46:53.235Z,17.77
2018-05-19T18:47:53.764Z,17.80
2018-05-19T18:49:49.201Z,17.84
2018-05-19T18:50:49.185Z,17.83
2018-05-19T18:52:47.156Z,17.80
2018-05-19T18:53:46.017Z,17.81
2018-05-19T18:55:41.940Z,17.65
2018-05-19T18:56:41.941Z,17.63
2018-05-19T18:58:40.937Z,17.63
2018-05-19T18:59:40.103Z,17.58
2018-05-19T19:01:33.613Z,17.52
2018-05-19T19:02:35.015Z,17.45
2018-05-19T19:04:32.507Z,17.38
2018-05-19T19:05:30.430Z,17.36
2018-05-19T19:07:28.971Z,17.36
2018-05-19T19:08:28.446Z,17.42
2018-05-19T19:10:26.436Z,17.22